createdAt,value
2024-01-06T00:00:58.640Z,18.58
2024-01-06T00:03:28.719Z,19.33
2024-01-06T00:06:02.192Z,13.10
2024-01-06T00:08:30.585Z,12.55
2024-01-06T00:10:59.102Z,10.82
2024-01-06T00:13:28.712Z,14.00
2024-01-06T00:15:56.882Z,13.52
2024-01-06T00:18:25.299Z,18.98
2024-01-06T00:20:53.638Z,13.88
2024-01-06T00:23:23.667Z,15.82
2024-01-06T00:25:51.680Z,12.70
2024-01-06T00:28:20.515Z,11.65
2024-01-06T00:30:50.453Z,14.10
2024-01-06T00:33:18.862Z,13.60
2024-01-06T00:35:47.048Z,14.80
2024-01-06T00:38:15.278Z,12.98
2024-01-06T00:40:43.594Z,17.70
2024-01-06T00:43:11.744Z,16.38
2024-01-06T00:45:39.982Z,17.60
2024-01-06T00:48:10.876Z,17.83
2024-01-06T00:50:39.163Z,13.40
2024-01-06T00:53:07.385Z,13.88
2024-01-06T00:55:35.581Z,15.18
2024-01-06T00:58:03.638Z,12.63
2024-01-06T01:00:32.068Z,12.85
2024-01-06T01:03:00.429Z,10.40
2024-01-06T01:05:29.930Z,11.00
2024-01-06T01:07:57.967Z,16.10
2024-01-06T01:10:26.057Z,13.73
2024-01-06T01:12:54.168Z,12.45
2024-01-06T01:15:28.461Z,11.38
2024-01-06T01:17:59.275Z,11.27
2024-01-06T01:24:29.064Z,17.50
2024-01-06T01:27:22.714Z,16.63
2024-01-06T01:29:53.887Z,13.07
2024-01-06T01:32:22.456Z,15.40
2024-01-06T01:34:53.772Z,16.90
2024-01-06T01:37:22.945Z,23.35
2024-01-06T01:39:52.450Z,18.20
2024-01-06T01:42:20.666Z,20.20
2024-01-06T01:44:49.036Z,15.85
2024-01-06T01:47:19.926Z,16.98
2024-01-06T01:49:48.971Z,24.13
2024-01-06T01:52:18.196Z,18.95
2024-01-06T01:54:47.639Z,15.27
2024-01-06T01:57:19.208Z,17.92
2024-01-06T01:59:48.862Z,15.60
2024-01-06T02:02:19.484Z,14.45
2024-01-06T02:04:47.782Z,16.17
2024-01-06T02:07:16.024Z,14.68
2024-01-06T02:09:44.733Z,14.85
2024-01-06T02:12:13.757Z,16.10
2024-01-06T02:14:44.477Z,14.43
2024-01-06T02:17:12.587Z,15.52
2024-01-06T02:19:41.228Z,17.50
2024-01-06T02:22:10.861Z,16.85
2024-01-06T02:24:39.139Z,14.10
2024-01-06T02:27:09.398Z,19.35
2024-01-06T02:29:38.301Z,21.95
2024-01-06T02:32:07.398Z,14.45
2024-01-06T02:34:36.117Z,15.20
2024-01-06T02:37:05.206Z,17.27
2024-01-06T02:39:34.827Z,18.00
2024-01-06T02:42:04.403Z,15.23
2024-01-06T02:44:32.442Z,13.18
2024-01-06T02:47:00.749Z,16.48
2024-01-06T02:49:30.179Z,18.83
2024-01-06T02:51:59.253Z,15.43
2024-01-06T02:54:27.970Z,14.00
2024-01-06T02:56:57.693Z,17.85
2024-01-06T02:59:25.911Z,16.98
2024-01-06T03:01:54.350Z,17.40
2024-01-06T03:04:22.733Z,12.82
2024-01-06T03:06:54.970Z,17.60
2024-01-06T03:09:23.939Z,15.93
2024-01-06T03:11:52.596Z,16.23
2024-01-06T03:14:22.338Z,17.70
2024-01-06T03:16:50.918Z,16.13
2024-01-06T03:19:20.152Z,15.27
2024-01-06T03:21:48.888Z,14.20
2024-01-06T03:24:17.160Z,19.23
2024-01-06T03:26:45.200Z,18.83
2024-01-06T03:29:13.828Z,15.15
2024-01-06T03:31:46.703Z,18.60
2024-01-06T03:34:15.406Z,22.30
2024-01-06T03:36:44.087Z,21.50
2024-01-06T03:39:14.611Z,22.55
2024-01-06T03:41:42.665Z,23.50
2024-01-06T03:44:12.280Z,22.40
2024-01-06T03:46:40.264Z,22.88
2024-01-06T03:49:10.314Z,21.85
2024-01-06T03:51:38.554Z,24.23
2024-01-06T03:54:07.090Z,27.55
2024-01-06T03:56:35.298Z,21.95
2024-01-06T03:59:03.480Z,23.70
2024-01-06T04:01:36.286Z,24.65
2024-01-06T04:04:04.681Z,28.48
2024-01-06T04:06:35.927Z,25.95
2024-01-06T04:09:04.877Z,21.90
2024-01-06T04:11:33.427Z,26.73
2024-01-06T04:14:01.532Z,29.67
2024-01-06T04:16:30.026Z,24.10
2024-01-06T04:18:58.424Z,27.95
2024-01-06T04:21:26.667Z,26.30
2024-01-06T04:23:57.275Z,27.05
2024-01-06T04:26:25.517Z,24.10
2024-01-06T04:28:54.642Z,26.35
2024-01-06T04:31:22.904Z,33.40
2024-01-06T04:33:53.251Z,29.88
2024-01-06T04:36:21.431Z,29.52
2024-01-06T04:38:49.724Z,25.40
2024-01-06T04:41:19.592Z,27.00
2024-01-06T04:43:47.650Z,29.08
2024-01-06T04:46:16.066Z,30.75
2024-01-06T04:48:44.905Z,31.88
2024-01-06T04:51:13.650Z,27.92
2024-01-06T04:53:42.721Z,30.33
2024-01-06T04:56:11.037Z,35.15
2024-01-06T04:58:40.934Z,28.77
2024-01-06T05:01:09.729Z,30.52
2024-01-06T05:03:38.057Z,36.60
2024-01-06T05:06:06.670Z,27.83
2024-01-06T05:08:34.791Z,32.97
2024-01-06T05:11:03.564Z,29.70
2024-01-06T05:13:31.992Z,32.08
2024-01-06T05:16:01.961Z,27.63
2024-01-06T05:18:31.842Z,25.48
2024-01-06T05:21:00.570Z,27.75
2024-01-06T05:23:28.927Z,32.13
2024-01-06T05:25:57.051Z,27.25
2024-01-06T05:28:25.377Z,29.88
2024-01-06T05:30:53.725Z,28.67
2024-01-06T05:33:23.654Z,31.65
2024-01-06T05:35:52.186Z,23.30
2024-01-06T05:38:20.264Z,35.65
2024-01-06T05:40:48.789Z,29.00
2024-01-06T05:43:17.731Z,36.28
2024-01-06T05:45:47.129Z,26.17
2024-01-06T05:48:15.726Z,31.33
2024-01-06T05:50:45.440Z,32.72
2024-01-06T05:53:15.546Z,29.65
2024-01-06T05:55:43.827Z,26.00
2024-01-06T05:58:12.390Z,27.38
2024-01-06T06:00:41.290Z,25.83
2024-01-06T06:03:09.843Z,27.88
2024-01-06T06:05:38.592Z,31.30
2024-01-06T06:08:08.713Z,35.00
2024-01-06T06:10:53.295Z,27.25
2024-01-06T06:13:21.721Z,27.80
2024-01-06T06:15:50.370Z,24.75
2024-01-06T06:18:19.155Z,30.10
2024-01-06T06:20:47.318Z,24.88
2024-01-06T06:23:17.217Z,26.00
2024-01-06T06:25:45.269Z,26.67
2024-01-06T06:28:13.782Z,27.33
2024-01-06T06:30:42.484Z,38.38
2024-01-06T06:33:10.739Z,31.98
2024-01-06T06:35:38.932Z,32.42
2024-01-06T06:38:07.414Z,28.98
2024-01-06T06:40:37.004Z,38.78
2024-01-06T06:43:06.414Z,27.00
2024-01-06T06:45:34.706Z,32.80
2024-01-06T06:48:03.414Z,36.00
2024-01-06T06:50:31.733Z,40.92
2024-01-06T06:53:00.097Z,30.83
2024-01-06T06:55:28.491Z,24.73
2024-01-06T06:57:58.250Z,31.45
2024-01-06T07:00:26.810Z,27.75
2024-01-06T07:02:55.108Z,32.75
2024-01-06T07:05:23.337Z,30.25
2024-01-06T07:07:51.794Z,32.58
2024-01-06T07:10:19.992Z,30.58
2024-01-06T07:12:48.286Z,27.17
2024-01-06T07:15:18.675Z,29.90
2024-01-06T07:17:47.412Z,29.52
2024-01-06T07:20:16.377Z,32.50
2024-01-06T07:22:45.340Z,33.00
2024-01-06T07:25:14.165Z,31.42
2024-01-06T07:27:42.518Z,29.85
2024-01-06T07:30:13.019Z,32.75
2024-01-06T07:32:43.542Z,30.83
2024-01-06T07:35:12.275Z,35.30
2024-01-06T07:37:40.526Z,36.50
2024-01-06T07:40:09.472Z,28.63
2024-01-06T07:42:38.203Z,28.90
2024-01-06T07:45:07.722Z,29.42
2024-01-06T07:47:36.179Z,34.85
2024-01-06T07:50:06.496Z,35.13
2024-01-06T07:52:35.263Z,40.33
2024-01-06T07:55:04.316Z,30.63
2024-01-06T07:57:32.590Z,26.60
2024-01-06T08:00:05.429Z,31.38
2024-01-06T08:02:40.463Z,28.27
2024-01-06T08:05:10.905Z,33.80
2024-01-06T08:07:39.561Z,31.15
2024-01-06T08:10:10.345Z,28.15
2024-01-06T08:12:39.022Z,29.10
2024-01-06T08:15:09.712Z,30.58
2024-01-06T08:17:38.877Z,32.85
2024-01-06T08:20:07.776Z,37.03
2024-01-06T08:22:37.232Z,29.13
2024-01-06T08:25:08.623Z,32.72
2024-01-06T08:27:37.090Z,26.92
2024-01-06T08:30:07.451Z,31.63
2024-01-06T08:32:35.935Z,35.13
2024-01-06T08:35:05.330Z,44.05
2024-01-06T08:37:33.505Z,49.83
2024-01-06T08:40:04.985Z,45.97
2024-01-06T08:42:33.554Z,55.75
2024-01-06T08:45:02.427Z,47.08
2024-01-06T08:47:30.675Z,48.45
2024-01-06T08:49:59.823Z,40.80
2024-01-06T08:52:28.732Z,39.78
2024-01-06T08:54:57.277Z,44.95
2024-01-06T08:57:27.032Z,49.85
2024-01-06T08:59:55.025Z,45.72
2024-01-06T09:02:24.930Z,46.30
2024-01-06T09:04:53.007Z,48.83
2024-01-06T09:07:21.320Z,46.65
2024-01-06T09:09:49.887Z,44.47
2024-01-06T09:12:17.934Z,52.03
2024-01-06T09:14:49.352Z,56.92
2024-01-06T09:17:17.635Z,46.75
2024-01-06T09:19:45.905Z,51.42
2024-01-06T09:22:14.593Z,51.45
2024-01-06T09:24:43.131Z,61.05
2024-01-06T09:27:14.145Z,57.38
2024-01-06T09:29:42.756Z,54.85
2024-01-06T09:32:14.111Z,58.78
2024-01-06T09:34:42.353Z,55.00
2024-01-06T09:37:11.026Z,55.33
2024-01-06T09:39:40.670Z,49.75
2024-01-06T09:42:10.174Z,40.90
2024-01-06T09:44:40.475Z,47.58
2024-01-06T09:47:14.477Z,61.85
2024-01-06T09:49:50.844Z,56.00
2024-01-06T09:52:24.792Z,57.85
2024-01-06T09:54:55.583Z,49.95
2024-01-06T09:57:25.762Z,56.58
2024-01-06T09:59:54.793Z,43.17
2024-01-06T10:02:26.108Z,51.70
2024-01-06T10:04:56.297Z,41.55
2024-01-06T10:07:24.554Z,45.22
2024-01-06T10:09:53.156Z,44.35
2024-01-06T10:12:25.993Z,40.10
2024-01-06T10:14:54.448Z,35.70
2024-01-06T10:17:24.955Z,50.30
2024-01-06T10:19:55.048Z,43.75
2024-01-06T10:22:24.352Z,37.60
2024-01-06T10:24:52.873Z,32.45
2024-01-06T10:27:21.449Z,34.33
2024-01-06T10:29:49.631Z,33.08
2024-01-06T10:32:18.590Z,34.42
2024-01-06T10:34:48.971Z,33.03
2024-01-06T10:37:20.066Z,34.70
2024-01-06T10:39:47.233Z,30.42
2024-01-06T10:42:17.628Z,30.80
2024-01-06T10:44:47.752Z,28.13
2024-01-06T10:47:19.269Z,31.02
2024-01-06T10:49:54.674Z,31.13
2024-01-06T10:52:26.378Z,28.35
2024-01-06T10:54:56.635Z,31.52
2024-01-06T10:57:25.790Z,35.08
2024-01-06T10:59:54.839Z,36.75
2024-01-06T11:02:24.857Z,31.30
2024-01-06T11:04:55.334Z,38.95
2024-01-06T11:07:25.703Z,49.00
2024-01-06T11:09:59.568Z,53.63
2024-01-06T11:12:28.636Z,49.35
2024-01-06T11:14:57.330Z,51.35
2024-01-06T11:17:56.810Z,50.55
2024-01-06T11:20:28.204Z,51.95
2024-01-06T11:22:57.440Z,66.38
2024-01-06T11:25:29.033Z,60.08
2024-01-06T11:27:58.539Z,57.45
2024-01-06T11:30:29.672Z,61.95
2024-01-06T11:33:00.265Z,56.85
2024-01-06T11:35:30.597Z,58.35
2024-01-06T11:38:02.594Z,45.17
2024-01-06T11:40:35.403Z,63.63
2024-01-06T11:43:07.045Z,63.65
2024-01-06T11:45:36.699Z,59.75
2024-01-06T11:48:06.813Z,79.90
2024-01-06T11:50:38.387Z,55.17
2024-01-06T11:53:11.332Z,65.43
2024-01-06T11:55:43.765Z,61.75
2024-01-06T11:58:13.875Z,60.08
2024-01-06T12:00:42.552Z,62.60
2024-01-06T12:03:11.796Z,56.30
2024-01-06T12:05:41.453Z,57.85
2024-01-06T12:08:09.753Z,58.13
2024-01-06T12:10:38.337Z,43.90
2024-01-06T12:13:10.507Z,56.53
2024-01-06T12:15:41.477Z,56.05
2024-01-06T12:18:10.829Z,59.00
2024-01-06T12:20:39.545Z,62.45
2024-01-06T12:23:09.040Z,65.65
2024-01-06T12:25:40.488Z,64.32
2024-01-06T12:28:10.142Z,64.05
2024-01-06T12:30:40.998Z,58.35
2024-01-06T12:33:09.989Z,56.47
2024-01-06T12:35:38.881Z,69.57
2024-01-06T12:38:09.008Z,65.07
2024-01-06T12:40:41.144Z,68.70
2024-01-06T12:43:09.890Z,71.30
2024-01-06T12:45:38.085Z,78.00
2024-01-06T12:48:07.436Z,71.90
2024-01-06T12:50:35.828Z,73.05
2024-01-06T12:53:04.027Z,54.92
2024-01-06T12:55:32.236Z,70.10
2024-01-06T12:58:05.188Z,55.88
2024-01-06T13:00:37.197Z,57.13
2024-01-06T13:03:07.187Z,57.53
2024-01-06T13:05:35.338Z,63.75
2024-01-06T13:08:04.613Z,57.20
2024-01-06T13:10:33.172Z,68.68
2024-01-06T13:13:03.025Z,65.03
2024-01-06T13:15:31.824Z,72.43
2024-01-06T13:18:00.293Z,81.28
2024-01-06T13:20:28.360Z,71.47
2024-01-06T13:22:56.750Z,65.30
2024-01-06T13:25:24.905Z,70.07
2024-01-06T13:27:54.011Z,70.30
2024-01-06T13:30:26.796Z,78.40
2024-01-06T13:32:56.282Z,69.90
2024-01-06T13:35:26.455Z,105.45
2024-01-06T13:37:57.081Z,91.05
2024-01-06T13:40:26.921Z,105.05
2024-01-06T13:42:56.059Z,83.57
2024-01-06T13:45:26.794Z,79.32
2024-01-06T13:47:55.456Z,80.63
2024-01-06T13:50:24.290Z,82.68
2024-01-06T13:52:53.443Z,85.57
2024-01-06T13:55:22.185Z,69.50
2024-01-06T13:57:51.031Z,67.53
2024-01-06T14:00:21.818Z,65.70
2024-01-06T14:02:52.508Z,60.25
2024-01-06T14:05:22.009Z,70.20
2024-01-06T14:07:52.110Z,82.18
2024-01-06T14:10:21.008Z,78.50
2024-01-06T14:12:50.954Z,90.15
2024-01-06T14:15:20.351Z,91.20
2024-01-06T14:17:51.596Z,73.40
2024-01-06T14:20:21.982Z,111.07
2024-01-06T14:22:51.335Z,93.65
2024-01-06T14:25:21.062Z,125.90
2024-01-06T14:27:49.735Z,92.00
2024-01-06T14:30:18.582Z,83.00
2024-01-06T14:32:47.811Z,86.80
2024-01-06T14:35:17.557Z,96.35
2024-01-06T14:37:47.509Z,97.07
2024-01-06T14:40:19.467Z,137.20
2024-01-06T14:42:48.780Z,117.50
2024-01-06T14:45:19.655Z,121.57
2024-01-06T14:47:51.705Z,97.35
2024-01-06T14:50:20.907Z,115.30
2024-01-06T14:52:51.356Z,95.07
2024-01-06T14:55:44.971Z,101.10
2024-01-06T14:58:13.762Z,96.32
2024-01-06T15:00:42.600Z,104.45
2024-01-06T15:03:11.174Z,100.00
2024-01-06T15:05:40.126Z,107.07
2024-01-06T15:08:10.430Z,110.38
2024-01-06T15:10:40.091Z,87.85
2024-01-06T15:13:08.743Z,85.80
2024-01-06T15:15:38.419Z,98.85
2024-01-06T15:18:10.182Z,106.05
2024-01-06T15:20:41.547Z,92.63
2024-01-06T15:23:12.800Z,105.25
2024-01-06T15:25:43.310Z,86.63
2024-01-06T15:28:12.268Z,101.68
2024-01-06T15:30:40.696Z,128.60
2024-01-06T15:33:09.600Z,96.70
2024-01-06T15:35:38.464Z,97.10
2024-01-06T15:38:07.258Z,91.82
2024-01-06T15:40:38.265Z,98.80
2024-01-06T15:43:06.712Z,120.10
2024-01-06T15:45:36.077Z,98.90
2024-01-06T15:48:05.218Z,106.60
2024-01-06T15:50:34.187Z,104.50
2024-01-06T15:53:02.892Z,127.97
2024-01-06T15:55:31.421Z,111.15
2024-01-06T15:58:01.032Z,95.93
2024-01-06T16:00:29.228Z,98.78
2024-01-06T16:02:57.538Z,94.70
2024-01-06T16:05:25.655Z,121.07
2024-01-06T16:07:54.383Z,92.05
2024-01-06T16:10:23.013Z,105.95
2024-01-06T16:12:52.381Z,108.47
2024-01-06T16:15:22.155Z,105.72
2024-01-06T16:17:51.228Z,95.38
2024-01-06T16:20:19.800Z,149.10
2024-01-06T16:22:48.250Z,105.20
2024-01-06T16:25:16.314Z,131.30
2024-01-06T16:27:45.138Z,94.50
2024-01-06T16:30:16.239Z,111.18
2024-01-06T16:32:48.529Z,114.47
2024-01-06T16:35:16.877Z,115.78
2024-01-06T16:37:45.042Z,112.38
2024-01-06T16:40:14.089Z,113.10
2024-01-06T16:42:42.200Z,99.50
2024-01-06T16:45:11.544Z,117.68
2024-01-06T16:47:39.690Z,128.52
2024-01-06T16:50:10.941Z,128.38
2024-01-06T16:52:40.123Z,152.27
2024-01-06T16:55:09.768Z,112.20
2024-01-06T16:57:38.831Z,119.30
2024-01-06T17:00:11.000Z,121.35
2024-01-06T17:02:39.909Z,115.75
2024-01-06T17:05:10.493Z,132.18
2024-01-06T17:07:42.066Z,119.43
2024-01-06T17:10:11.891Z,119.97
2024-01-06T17:12:40.250Z,118.90
2024-01-06T17:15:10.204Z,151.88
2024-01-06T17:17:40.139Z,105.45
2024-01-06T17:20:11.984Z,88.63
2024-01-06T17:22:40.611Z,108.15
2024-01-06T17:25:15.530Z,112.70
2024-01-06T17:27:43.678Z,131.23
2024-01-06T17:30:12.643Z,143.68
2024-01-06T17:32:40.789Z,179.02
2024-01-06T17:35:11.869Z,172.52
2024-01-06T17:37:40.259Z,169.60
2024-01-06T17:40:09.755Z,192.98
2024-01-06T17:42:38.585Z,203.35
2024-01-06T17:45:07.503Z,179.55
2024-01-06T17:47:37.101Z,178.52
2024-01-06T17:50:06.525Z,130.55
2024-01-06T17:52:36.100Z,175.35
2024-01-06T17:55:04.585Z,252.13
2024-01-06T17:57:35.683Z,163.63
2024-01-06T18:00:08.630Z,177.18
2024-01-06T18:02:38.872Z,132.30
2024-01-06T18:05:08.811Z,172.95
2024-01-06T18:07:39.276Z,164.85
2024-01-06T18:10:10.332Z,148.80
2024-01-06T18:12:40.270Z,129.73
2024-01-06T18:15:08.487Z,109.10
2024-01-06T18:17:37.633Z,160.55
2024-01-06T18:20:07.382Z,121.32
2024-01-06T18:22:35.743Z,128.50
2024-01-06T18:25:06.334Z,149.35
2024-01-06T18:27:34.548Z,174.38
2024-01-06T18:30:02.656Z,122.32
2024-01-06T18:32:30.877Z,148.43
2024-01-06T18:34:59.275Z,95.70
2024-01-06T18:37:27.506Z,127.68
2024-01-06T18:39:55.630Z,120.35
2024-01-06T18:42:26.091Z,133.82
2024-01-06T18:44:54.456Z,136.25
2024-01-06T18:47:23.693Z,151.02
2024-01-06T18:49:51.959Z,106.90
2024-01-06T18:52:20.214Z,104.80
2024-01-06T18:54:48.562Z,86.28
2024-01-06T18:57:19.227Z,96.35
2024-01-06T18:59:51.824Z,108.03
2024-01-06T19:02:24.775Z,110.10
2024-01-06T19:04:52.882Z,125.78
2024-01-06T19:07:21.120Z,119.82
2024-01-06T19:09:49.677Z,87.40
2024-01-06T19:12:18.127Z,79.18
2024-01-06T19:14:47.086Z,97.88
2024-01-06T19:17:16.790Z,81.50
2024-01-06T19:19:45.599Z,79.38
2024-01-06T19:22:13.804Z,93.15
2024-01-06T19:24:44.085Z,103.78
2024-01-06T19:27:12.795Z,102.90
2024-01-06T19:29:44.539Z,98.53
2024-01-06T19:32:13.086Z,114.32
2024-01-06T19:34:43.053Z,100.82
2024-01-06T19:37:11.535Z,91.90
2024-01-06T19:39:39.645Z,92.10
2024-01-06T19:42:08.174Z,104.20
2024-01-06T19:44:36.407Z,89.18
2024-01-06T19:47:04.917Z,90.75
2024-01-06T19:49:33.460Z,85.85
2024-01-06T19:52:03.748Z,115.40
2024-01-06T19:54:33.480Z,86.32
2024-01-06T19:57:02.127Z,100.05
2024-01-06T19:59:30.180Z,89.30
2024-01-06T20:01:58.331Z,94.72
2024-01-06T20:04:27.255Z,98.18
2024-01-06T20:06:55.804Z,85.35
2024-01-06T20:09:25.332Z,91.32
2024-01-06T20:11:53.980Z,81.10
2024-01-06T20:14:22.124Z,101.85
2024-01-06T20:16:50.451Z,119.30
2024-01-06T20:19:19.147Z,87.07
2024-01-06T20:21:47.411Z,96.93
2024-01-06T20:24:15.612Z,89.30
2024-01-06T20:26:45.225Z,79.60
2024-01-06T20:29:13.646Z,76.20
2024-01-06T20:31:41.906Z,99.00
2024-01-06T20:34:11.149Z,83.82
2024-01-06T20:36:39.461Z,94.63
2024-01-06T20:39:07.541Z,100.50
2024-01-06T20:41:35.739Z,80.28
2024-01-06T20:44:07.589Z,108.32
2024-01-06T20:46:37.508Z,127.28
2024-01-06T20:49:05.561Z,93.15
2024-01-06T20:51:35.576Z,95.00
2024-01-06T20:54:03.822Z,91.43
2024-01-06T20:56:32.045Z,65.18
2024-01-06T20:59:00.156Z,86.53
2024-01-06T21:01:29.658Z,67.05
2024-01-06T21:03:57.692Z,75.05
2024-01-06T21:06:27.630Z,75.03
2024-01-06T21:08:55.997Z,79.93
2024-01-06T21:11:24.194Z,82.85
2024-01-06T21:13:52.234Z,70.32
2024-01-06T21:16:20.331Z,74.13
2024-01-06T21:18:50.339Z,72.57
2024-01-06T21:21:20.225Z,86.88
2024-01-06T21:23:49.726Z,103.43
2024-01-06T21:26:18.339Z,80.38
2024-01-06T21:28:48.548Z,83.70
2024-01-06T21:31:17.225Z,73.22
2024-01-06T21:33:46.915Z,70.32
2024-01-06T21:36:17.878Z,58.38
2024-01-06T21:38:46.174Z,68.38
2024-01-06T21:41:15.041Z,66.82
2024-01-06T21:43:43.527Z,85.07
2024-01-06T21:46:11.588Z,56.00
2024-01-06T21:48:40.686Z,58.00
2024-01-06T21:51:08.840Z,95.93
2024-01-06T21:53:39.207Z,50.38
2024-01-06T21:56:07.786Z,67.50
2024-01-06T21:58:35.919Z,54.65
2024-01-06T22:01:04.296Z,74.50
2024-01-06T22:03:32.519Z,71.70
2024-01-06T22:06:00.959Z,77.85
2024-01-06T22:08:29.587Z,96.97
2024-01-06T22:10:58.979Z,75.35
2024-01-06T22:13:26.963Z,98.05
2024-01-06T22:15:55.169Z,104.38
2024-01-06T22:18:24.092Z,88.88
2024-01-06T22:20:53.165Z,102.38
2024-01-06T22:23:21.158Z,72.93
2024-01-06T22:25:49.225Z,128.15
2024-01-06T22:28:18.841Z,82.68
2024-01-06T22:30:47.392Z,66.65
2024-01-06T22:33:16.537Z,87.82
2024-01-06T22:35:45.063Z,72.65
2024-01-06T22:38:13.143Z,69.85
2024-01-06T22:40:41.307Z,71.07
2024-01-06T22:43:09.489Z,70.22
2024-01-06T22:45:39.920Z,76.63
2024-01-06T22:48:08.467Z,63.83
2024-01-06T22:50:37.066Z,60.58
2024-01-06T22:53:07.006Z,59.75
2024-01-06T22:55:35.168Z,60.60
2024-01-06T22:58:03.282Z,62.88
2024-01-06T23:00:37.159Z,66.85
2024-01-06T23:03:07.961Z,64.47
2024-01-06T23:05:36.141Z,57.10
2024-01-06T23:08:04.626Z,51.97
2024-01-06T23:10:33.167Z,64.35
2024-01-06T23:13:01.303Z,62.60
2024-01-06T23:15:29.625Z,62.70
2024-01-06T23:17:58.506Z,58.97
2024-01-06T23:20:28.097Z,55.30
2024-01-06T23:22:56.113Z,52.30
2024-01-06T23:25:24.823Z,54.92
2024-01-06T23:27:52.929Z,51.40
2024-01-06T23:30:21.929Z,45.88
2024-01-06T23:32:50.211Z,56.58
2024-01-06T23:35:18.532Z,51.38
2024-01-06T23:37:51.680Z,48.38
2024-01-06T23:40:21.018Z,53.67
2024-01-06T23:42:49.203Z,45.22
2024-01-06T23:45:17.577Z,46.72
2024-01-06T23:47:45.725Z,55.03
2024-01-06T23:50:13.914Z,49.70
2024-01-06T23:52:42.754Z,48.10
2024-01-06T23:55:13.069Z,38.85
2024-01-06T23:57:41.444Z,41.40
